Main page
METAR-TAF:

METAR-TAF

Airports :

Lomé, Togo

Lomé–Tokoin International Airport

latitude: 06-10N, longitude: 001-15E, elevation: 20 m

Current weather observation

The report was made 46 minutes ago, at 21:00 UTC
Wind 5 kt from the West/Southwest, varying between South/Southwest and West
Temperature 29°C
Humidity 79%
Pressure 1012 hPa
Visibility 10 km or more
Few clouds at a height of 1300 ft

METAR: DXXX 242100Z 24005KT 200V260 9999 FEW013 29/25 Q1012 NOSIG

Time: 21:46 (21:46 UTC)

Forecast

The report was made 4 hours and 46 minutes ago, at 17:00 UTC
Forecast valid from 24 at 18 UTC to 25 at 24 UTC
Wind 10 kt from the South/Southwest
Visibility 10 km or more
Scattered clouds at a height of 1300 ft
Becoming
from 24 at 22 UTC to 24 at 24 UTC
Wind 4 kt from the West
Becoming
from 25 at 09 UTC to 25 at 11 UTC
Wind 12 kt from the South/Southwest

TAF: DXXX 241700Z 2418/2524 20010KT 9999 SCT013 BECMG 2422/2424 26004KT BECMG 2509/2511 20012KT

Weather observations and forecasts of more than 4000 airports (METAR and TAF reports).

The available stations are represented by yellow and red dots on the map.

Hover mouse over dot to see the name of the station.

Then click to see weather observations and forecasts.

To change the map : click on the green buttons with a black cross to zoom in, on the green button with a dash to zoom out, or on the green arrows for adjacent maps.


METAR-TAF: